createdAt,value
2023-04-19T00:00:53.028Z,72.78
2023-04-19T00:02:56.520Z,72.88
2023-04-19T00:05:00.277Z,73.08
2023-04-19T00:07:03.938Z,73.09
2023-04-19T00:09:07.334Z,73.34
2023-04-19T00:11:11.146Z,73.40
2023-04-19T00:13:14.521Z,73.34
2023-04-19T00:15:19.392Z,73.39
2023-04-19T00:17:23.130Z,73.41
2023-04-19T00:19:26.828Z,73.63
2023-04-19T00:21:30.181Z,73.63
2023-04-19T00:23:33.568Z,73.81
2023-04-19T00:25:36.962Z,73.64
2023-04-19T00:27:40.297Z,73.83
2023-04-19T00:29:43.658Z,73.92
2023-04-19T00:31:48.439Z,73.77
2023-04-19T00:33:51.875Z,74.04
2023-04-19T00:35:55.486Z,73.97
2023-04-19T00:37:58.828Z,73.97
2023-04-19T00:40:02.230Z,74.16
2023-04-19T00:42:05.627Z,74.10
2023-04-19T00:44:09.043Z,73.92
2023-04-19T00:46:12.966Z,74.08
2023-04-19T00:48:18.259Z,73.79
2023-04-19T00:50:23.190Z,73.69
2023-04-19T00:52:27.237Z,73.67
2023-04-19T00:54:31.473Z,73.59
2023-04-19T00:56:35.765Z,73.27
2023-04-19T00:58:40.155Z,73.43
2023-04-19T01:00:43.568Z,73.43
2023-04-19T01:02:47.568Z,73.34
2023-04-19T01:04:53.126Z,73.16
2023-04-19T01:06:57.470Z,73.33
2023-04-19T01:09:00.931Z,73.34
2023-04-19T01:11:04.407Z,73.33
2023-04-19T01:13:07.984Z,73.00
2023-04-19T01:15:14.284Z,73.03
2023-04-19T01:17:18.113Z,72.76
2023-04-19T01:19:21.401Z,72.87
2023-04-19T01:21:26.545Z,72.81
2023-04-19T01:23:31.340Z,72.56
2023-04-19T01:25:34.705Z,72.73
2023-04-19T01:27:38.193Z,72.49
2023-04-19T01:29:41.911Z,72.43
2023-04-19T01:31:49.318Z,72.36
2023-04-19T01:33:52.788Z,72.28
2023-04-19T01:35:56.352Z,71.91
2023-04-19T01:37:59.775Z,71.85
2023-04-19T01:40:05.503Z,72.05
2023-04-19T01:42:08.892Z,71.99
2023-04-19T01:44:13.940Z,71.67
2023-04-19T01:46:17.572Z,71.69
2023-04-19T01:48:20.953Z,71.32
2023-04-19T01:50:24.451Z,71.43
2023-04-19T01:52:27.938Z,71.26
2023-04-19T01:54:31.699Z,71.19
2023-04-19T01:56:36.524Z,71.28
2023-04-19T01:58:39.871Z,71.29
2023-04-19T02:00:43.481Z,71.22
2023-04-19T02:02:46.951Z,71.34
2023-04-19T02:04:52.018Z,71.40
2023-04-19T02:06:55.716Z,71.58
2023-04-19T02:08:59.057Z,71.45
2023-04-19T02:11:02.424Z,71.63
2023-04-19T02:13:07.282Z,71.72
2023-04-19T02:15:11.419Z,71.66
2023-04-19T02:17:14.952Z,71.71
2023-04-19T02:19:18.329Z,71.69
2023-04-19T02:21:21.825Z,71.63
2023-04-19T02:23:25.394Z,71.67
2023-04-19T02:25:28.856Z,71.59
2023-04-19T02:27:32.395Z,71.80
2023-04-19T02:29:37.457Z,71.80
2023-04-19T02:31:41.071Z,71.81
2023-04-19T02:33:46.864Z,71.82
2023-04-19T02:35:50.373Z,71.88
2023-04-19T02:37:53.720Z,71.78
2023-04-19T02:39:57.062Z,71.65
2023-04-19T02:42:01.217Z,72.02
2023-04-19T02:44:04.625Z,71.93
2023-04-19T02:46:09.448Z,71.97
2023-04-19T02:48:13.124Z,72.06
2023-04-19T02:50:17.719Z,72.21
2023-04-19T02:52:27.255Z,72.34
2023-04-19T02:54:30.965Z,72.47
2023-04-19T02:56:34.301Z,72.45
2023-04-19T02:58:38.874Z,72.47
2023-04-19T03:00:43.665Z,72.57
2023-04-19T03:02:52.872Z,72.82
2023-04-19T03:04:56.430Z,72.96
2023-04-19T03:07:00.214Z,73.10
2023-04-19T03:09:04.040Z,73.02
2023-04-19T03:11:07.802Z,73.19
2023-04-19T03:13:11.463Z,73.17
2023-04-19T03:15:14.873Z,73.22
2023-04-19T03:17:18.350Z,73.45
2023-04-19T03:19:23.743Z,73.43
2023-04-19T03:21:29.258Z,73.60
2023-04-19T03:23:32.907Z,73.51
2023-04-19T03:25:38.211Z,73.51
2023-04-19T03:28:04.702Z,73.73
2023-04-19T03:30:26.984Z,73.60
2023-04-19T03:32:30.693Z,73.61
2023-04-19T03:34:35.582Z,73.65
2023-04-19T03:36:39.763Z,73.55
2023-04-19T03:38:44.526Z,73.78
2023-04-19T03:40:53.187Z,73.77
2023-04-19T03:42:57.417Z,73.86
2023-04-19T03:45:07.891Z,74.02
2023-04-19T03:47:16.129Z,73.82
2023-04-19T03:49:22.853Z,73.99
2023-04-19T03:51:33.306Z,73.83
2023-04-19T03:53:37.927Z,73.98
2023-04-19T03:55:41.432Z,73.98
2023-04-19T03:57:44.811Z,74.00
2023-04-19T03:59:55.367Z,74.00
2023-04-19T04:01:59.881Z,74.18
2023-04-19T04:04:05.033Z,74.25
2023-04-19T04:06:09.233Z,74.37
2023-04-19T04:08:14.892Z,74.29
2023-04-19T04:10:18.808Z,74.28
2023-04-19T04:12:22.930Z,74.32
2023-04-19T04:14:28.769Z,74.33
2023-04-19T04:16:32.468Z,74.48
2023-04-19T04:18:36.202Z,74.55
2023-04-19T04:20:44.628Z,74.52
2023-04-19T04:22:48.729Z,74.64
2023-04-19T04:24:58.209Z,74.42
2023-04-19T04:27:10.925Z,74.59
2023-04-19T04:29:16.563Z,74.53
2023-04-19T04:31:21.155Z,74.50
2023-04-19T04:33:26.504Z,74.34
2023-04-19T04:35:30.730Z,74.55
2023-04-19T04:37:42.981Z,74.69
2023-04-19T04:39:46.437Z,74.64
2023-04-19T04:41:51.962Z,74.82
2023-04-19T04:44:11.316Z,74.67
2023-04-19T04:46:16.492Z,74.52
2023-04-19T04:48:19.894Z,74.46
2023-04-19T04:50:23.292Z,74.41
2023-04-19T04:52:26.910Z,74.14
2023-04-19T04:54:37.988Z,74.36
2023-04-19T04:56:45.912Z,74.08
2023-04-19T04:58:51.185Z,74.11
2023-04-19T05:01:03.582Z,73.71
2023-04-19T05:03:10.508Z,73.70
2023-04-19T05:05:21.972Z,73.30
2023-04-19T05:07:25.800Z,73.23
2023-04-19T05:09:29.203Z,73.03
2023-04-19T05:11:33.631Z,72.56
2023-04-19T05:13:37.445Z,72.26
2023-04-19T05:15:42.186Z,72.08
2023-04-19T05:17:45.985Z,71.80
2023-04-19T05:19:50.217Z,71.65
2023-04-19T05:21:53.641Z,71.52
2023-04-19T05:23:57.191Z,71.37
2023-04-19T05:26:00.595Z,70.95
2023-04-19T05:28:05.460Z,70.63
2023-04-19T05:30:17.607Z,70.26
2023-04-19T05:32:23.145Z,70.04
2023-04-19T05:34:31.600Z,69.61
2023-04-19T05:36:36.029Z,69.61
2023-04-19T05:38:39.538Z,69.40
2023-04-19T05:40:43.504Z,69.21
2023-04-19T05:42:46.880Z,68.65
2023-04-19T05:44:50.370Z,68.25
2023-04-19T05:46:53.845Z,68.18
2023-04-19T05:49:18.508Z,67.95
2023-04-19T05:51:51.229Z,67.53
2023-04-19T05:54:12.729Z,67.41
2023-04-19T05:56:17.528Z,67.13
2023-04-19T05:58:20.976Z,66.57
2023-04-19T06:00:24.438Z,66.48
2023-04-19T06:02:36.139Z,65.88
2023-04-19T06:04:41.576Z,65.81
2023-04-19T06:06:45.242Z,65.61
2023-04-19T06:08:54.450Z,64.98
2023-04-19T06:11:02.164Z,64.85
2023-04-19T06:13:11.542Z,64.54
2023-04-19T06:15:15.137Z,64.22
2023-04-19T06:17:23.538Z,63.95
2023-04-19T06:19:27.273Z,63.54
2023-04-19T06:21:33.408Z,63.36
2023-04-19T06:23:36.721Z,62.97
2023-04-19T06:25:40.097Z,62.36
2023-04-19T06:27:43.425Z,61.90
2023-04-19T06:29:46.800Z,61.58
2023-04-19T06:31:50.133Z,61.27
2023-04-19T06:33:53.589Z,60.79
2023-04-19T06:35:57.085Z,60.45
2023-04-19T06:38:01.992Z,59.92
2023-04-19T06:40:07.461Z,59.26
2023-04-19T06:42:10.932Z,59.14
2023-04-19T06:44:14.742Z,58.24
2023-04-19T06:46:18.409Z,58.04
2023-04-19T06:48:21.782Z,58.05
2023-04-19T06:50:25.345Z,57.61
2023-04-19T06:52:29.947Z,57.22
2023-04-19T06:54:34.779Z,57.05
2023-04-19T06:56:45.427Z,57.00
2023-04-19T06:58:48.840Z,56.72
2023-04-19T07:00:52.181Z,56.18
2023-04-19T07:02:55.609Z,55.65
2023-04-19T07:04:59.098Z,55.73
2023-04-19T07:07:02.365Z,55.97
2023-04-19T07:09:07.332Z,55.55
2023-04-19T07:11:12.144Z,55.25
2023-04-19T07:13:15.517Z,55.17
2023-04-19T07:15:19.013Z,55.07
2023-04-19T07:17:22.484Z,55.14
2023-04-19T07:19:26.396Z,54.99
2023-04-19T07:21:33.376Z,54.76
2023-04-19T07:23:36.810Z,54.40
2023-04-19T07:25:40.172Z,53.33
2023-04-19T07:27:44.947Z,53.29
2023-04-19T07:29:48.304Z,52.51
2023-04-19T07:31:52.119Z,52.27
2023-04-19T07:33:55.878Z,51.92
2023-04-19T07:35:59.198Z,51.57
2023-04-19T07:38:03.027Z,50.97
2023-04-19T07:40:07.849Z,50.74
2023-04-19T07:42:11.290Z,50.87
2023-04-19T07:44:16.244Z,50.29
2023-04-19T07:46:19.895Z,49.95
2023-04-19T07:48:23.430Z,49.05
2023-04-19T07:50:27.186Z,48.79
2023-04-19T07:52:30.589Z,48.61
2023-04-19T07:54:33.967Z,48.78
2023-04-19T07:56:37.346Z,48.48
2023-04-19T07:58:41.584Z,48.70
2023-04-19T08:00:46.612Z,48.15
2023-04-19T08:02:51.119Z,47.65
2023-04-19T08:04:54.839Z,47.16
2023-04-19T08:06:58.291Z,47.41
2023-04-19T08:09:01.712Z,47.17
2023-04-19T08:11:06.274Z,47.06
2023-04-19T08:13:09.682Z,46.99
2023-04-19T08:15:37.515Z,47.02
2023-04-19T08:17:42.200Z,46.96
2023-04-19T08:19:45.987Z,47.10
2023-04-19T08:21:49.371Z,46.63
2023-04-19T08:23:54.279Z,46.40
2023-04-19T08:25:57.826Z,46.47
2023-04-19T08:28:01.208Z,46.13
2023-04-19T08:30:05.054Z,45.44
2023-04-19T08:32:08.963Z,45.54
2023-04-19T08:34:13.741Z,45.88
2023-04-19T08:36:22.206Z,45.66
2023-04-19T08:38:28.894Z,45.31
2023-04-19T08:40:32.626Z,44.89
2023-04-19T08:42:37.108Z,45.10
2023-04-19T08:44:59.063Z,45.30
2023-04-19T08:47:05.113Z,44.98
2023-04-19T08:49:09.758Z,44.61
2023-04-19T08:51:15.213Z,43.91
2023-04-19T08:53:24.928Z,43.42
2023-04-19T08:55:30.660Z,43.36
2023-04-19T08:57:34.481Z,43.38
2023-04-19T08:59:37.823Z,43.82
2023-04-19T09:01:43.722Z,43.74
2023-04-19T09:03:59.470Z,43.46
2023-04-19T09:06:07.567Z,43.45
2023-04-19T09:08:26.549Z,43.75
2023-04-19T09:10:29.886Z,43.32
2023-04-19T09:12:33.352Z,42.84
2023-04-19T09:14:57.903Z,42.85
2023-04-19T09:17:15.827Z,41.83
2023-04-19T09:19:24.728Z,40.93
2023-04-19T09:21:30.582Z,38.40
2023-04-19T09:23:35.329Z,38.54
2023-04-19T09:26:05.824Z,38.53
2023-04-19T09:28:11.263Z,38.01
2023-04-19T09:30:28.002Z,38.25
2023-04-19T09:32:48.171Z,39.24
2023-04-19T09:34:56.167Z,39.21
2023-04-19T09:37:08.938Z,38.55
2023-04-19T09:39:29.931Z,37.92
2023-04-19T09:41:34.268Z,37.47
2023-04-19T09:43:58.928Z,37.49
2023-04-19T09:46:01.870Z,36.75
2023-04-19T09:48:07.796Z,36.48
2023-04-19T09:50:22.762Z,36.33
2023-04-19T09:52:27.383Z,36.43
2023-04-19T09:54:33.037Z,36.04
2023-04-19T09:56:37.569Z,36.46
2023-04-19T09:58:49.617Z,34.93
2023-04-19T10:01:10.675Z,33.82
2023-04-19T10:03:17.971Z,32.84
2023-04-19T10:05:22.898Z,32.09
2023-04-19T10:07:30.699Z,32.00
2023-04-19T10:09:45.882Z,31.94
2023-04-19T10:12:02.107Z,31.79
2023-04-19T10:14:18.203Z,31.72
2023-04-19T10:16:21.990Z,31.55
2023-04-19T10:18:26.616Z,31.25
2023-04-19T10:20:37.240Z,30.92
2023-04-19T10:22:41.686Z,30.80
2023-04-19T10:25:09.762Z,31.22
2023-04-19T10:27:13.930Z,31.67
2023-04-19T10:29:17.521Z,32.23
2023-04-19T10:31:23.709Z,32.00
2023-04-19T10:33:28.904Z,30.69
2023-04-19T10:35:37.853Z,29.57
2023-04-19T10:37:42.330Z,30.16
2023-04-19T10:39:46.531Z,30.08
2023-04-19T10:41:59.732Z,29.10
2023-04-19T10:44:12.858Z,28.70
2023-04-19T10:46:18.412Z,28.86
2023-04-19T10:48:44.115Z,29.02
2023-04-19T10:50:59.747Z,29.84
2023-04-19T10:53:53.586Z,29.66
2023-04-19T10:55:56.924Z,29.95
2023-04-19T10:58:06.350Z,29.20
2023-04-19T11:00:22.398Z,28.05
2023-04-19T11:02:30.905Z,26.97
2023-04-19T11:05:00.613Z,26.46
2023-04-19T11:07:06.013Z,26.87
2023-04-19T11:09:10.776Z,27.23
2023-04-19T11:11:15.491Z,26.48
2023-04-19T11:13:20.526Z,25.11
2023-04-19T11:15:24.402Z,24.70
2023-04-19T11:17:29.487Z,25.76
2023-04-19T11:19:32.925Z,26.16
2023-04-19T11:21:41.069Z,25.99
2023-04-19T11:23:44.502Z,25.97
2023-04-19T11:25:48.575Z,25.34
2023-04-19T11:27:53.509Z,24.95
2023-04-19T11:30:05.763Z,24.97
2023-04-19T11:32:09.098Z,25.61
2023-04-19T11:34:13.314Z,25.53
2023-04-19T11:36:16.953Z,24.75
2023-04-19T11:38:20.259Z,24.76
2023-04-19T11:40:26.019Z,24.18
2023-04-19T11:42:29.535Z,24.25
2023-04-19T11:44:34.186Z,24.77
2023-04-19T11:46:38.979Z,24.38
2023-04-19T11:48:52.437Z,24.30
2023-04-19T11:50:59.736Z,23.85
2023-04-19T11:53:12.617Z,24.43
2023-04-19T11:55:25.468Z,25.09
2023-04-19T11:57:30.215Z,25.05
2023-04-19T11:59:35.740Z,23.33
2023-04-19T12:01:42.514Z,23.82
2023-04-19T12:03:47.752Z,24.12
2023-04-19T12:05:55.589Z,23.47
2023-04-19T12:08:04.070Z,23.87
2023-04-19T12:10:12.750Z,23.91
2023-04-19T12:12:33.009Z,24.23
2023-04-19T12:14:36.390Z,24.60
2023-04-19T12:16:41.526Z,23.58
2023-04-19T12:18:50.364Z,23.91
2023-04-19T12:20:55.032Z,24.39
2023-04-19T12:22:58.406Z,24.31
2023-04-19T12:25:01.871Z,23.59
2023-04-19T12:27:06.055Z,23.43
2023-04-19T12:29:09.998Z,24.19
2023-04-19T12:31:13.555Z,24.70
2023-04-19T12:33:18.236Z,24.68
2023-04-19T12:35:21.771Z,24.78
2023-04-19T12:37:25.241Z,24.25
2023-04-19T12:39:29.431Z,24.26
2023-04-19T12:41:32.730Z,23.62
2023-04-19T12:43:36.049Z,23.25
2023-04-19T12:45:39.489Z,23.43
2023-04-19T12:47:43.430Z,24.02
2023-04-19T12:49:48.687Z,24.46
2023-04-19T12:51:52.111Z,24.70
2023-04-19T12:53:55.672Z,24.37
2023-04-19T12:55:59.360Z,23.84
2023-04-19T12:58:02.720Z,23.88
2023-04-19T13:00:08.986Z,24.07
2023-04-19T13:02:12.568Z,23.74
2023-04-19T13:04:16.607Z,24.26
2023-04-19T13:06:21.822Z,23.73
2023-04-19T13:08:41.102Z,22.93
2023-04-19T13:10:47.250Z,22.67
2023-04-19T13:12:50.711Z,23.24
2023-04-19T13:14:54.227Z,23.00
2023-04-19T13:16:57.574Z,22.98
2023-04-19T13:19:01.066Z,23.32
2023-04-19T13:21:06.089Z,23.31
2023-04-19T13:23:12.729Z,22.72
2023-04-19T13:25:16.095Z,22.88
2023-04-19T13:27:19.461Z,23.31
2023-04-19T13:29:22.900Z,22.87
2023-04-19T13:31:26.626Z,23.33
2023-04-19T13:33:30.231Z,24.10
2023-04-19T13:35:33.586Z,23.28
2023-04-19T13:37:36.924Z,22.87
2023-04-19T13:39:41.758Z,23.37
2023-04-19T13:41:45.103Z,23.34
2023-04-19T13:43:48.749Z,23.26
2023-04-19T13:45:52.138Z,22.56
2023-04-19T13:47:55.473Z,22.80
2023-04-19T13:49:58.845Z,22.43
2023-04-19T13:52:02.354Z,21.54
2023-04-19T13:54:06.339Z,21.32
2023-04-19T13:56:11.238Z,21.30
2023-04-19T13:58:14.785Z,21.98
2023-04-19T14:00:19.220Z,21.93
2023-04-19T14:02:22.835Z,21.96
2023-04-19T14:04:26.802Z,22.01
2023-04-19T14:06:30.343Z,22.13
2023-04-19T14:08:33.729Z,22.26
2023-04-19T14:10:38.105Z,22.04
2023-04-19T14:12:42.822Z,21.70
2023-04-19T14:14:46.158Z,22.47
2023-04-19T14:16:49.693Z,22.44
2023-04-19T14:18:53.288Z,21.90
2023-04-19T14:20:56.626Z,22.35
2023-04-19T14:23:00.384Z,22.25
2023-04-19T14:25:04.136Z,21.90
2023-04-19T14:27:11.256Z,22.03
2023-04-19T14:29:16.868Z,22.21
2023-04-19T14:31:20.438Z,22.70
2023-04-19T14:33:23.920Z,22.20
2023-04-19T14:35:27.302Z,21.98
2023-04-19T14:37:30.771Z,21.28
2023-04-19T14:39:34.067Z,21.62
2023-04-19T14:41:37.493Z,21.11
2023-04-19T14:43:40.822Z,20.80
2023-04-19T14:45:45.850Z,20.58
2023-04-19T14:47:49.289Z,20.98
2023-04-19T14:49:52.651Z,20.68
2023-04-19T14:51:56.049Z,20.30
2023-04-19T14:53:59.762Z,20.31
2023-04-19T14:56:05.724Z,20.29
2023-04-19T14:58:09.136Z,19.95
2023-04-19T15:00:14.552Z,20.27
2023-04-19T15:02:19.377Z,20.24
2023-04-19T15:04:22.911Z,19.62
2023-04-19T15:06:26.403Z,20.10
2023-04-19T15:08:30.927Z,20.14
2023-04-19T15:10:37.621Z,20.54
2023-04-19T15:12:41.643Z,20.73
2023-04-19T15:14:45.159Z,20.33
2023-04-19T15:16:48.596Z,20.36
2023-04-19T15:18:53.763Z,20.72
2023-04-19T15:20:57.088Z,20.22
2023-04-19T15:23:00.464Z,19.26
2023-04-19T15:25:03.849Z,18.89
2023-04-19T15:27:07.723Z,19.38
2023-04-19T15:29:11.071Z,19.24
2023-04-19T15:31:14.454Z,19.62
2023-04-19T15:33:17.765Z,19.10
2023-04-19T15:35:22.777Z,19.17
2023-04-19T15:37:27.490Z,20.12
2023-04-19T15:39:30.920Z,19.91
2023-04-19T15:41:34.291Z,19.61
2023-04-19T15:43:38.447Z,19.83
2023-04-19T15:45:46.032Z,19.88
2023-04-19T15:47:49.588Z,19.67
2023-04-19T15:49:54.217Z,20.05
2023-04-19T15:51:59.144Z,20.57
2023-04-19T15:54:02.511Z,20.73
2023-04-19T15:56:07.784Z,20.51
2023-04-19T15:58:11.463Z,20.89
2023-04-19T16:00:15.825Z,21.05
2023-04-19T16:02:19.817Z,20.96
2023-04-19T16:04:24.245Z,21.23
2023-04-19T16:06:28.594Z,21.37
2023-04-19T16:08:35.297Z,21.73
2023-04-19T16:10:39.512Z,22.19
2023-04-19T16:12:44.305Z,22.05
2023-04-19T16:14:47.678Z,22.31
2023-04-19T16:16:51.254Z,22.59
2023-04-19T16:18:54.865Z,22.89
2023-04-19T16:20:58.507Z,23.25
2023-04-19T16:23:03.525Z,23.50
2023-04-19T16:25:11.099Z,23.60
2023-04-19T16:27:15.050Z,23.42
2023-04-19T16:29:18.908Z,23.46
2023-04-19T16:31:23.033Z,23.75
2023-04-19T16:33:26.559Z,23.98
2023-04-19T16:35:30.015Z,24.20
2023-04-19T16:37:33.475Z,24.23
2023-04-19T16:39:36.829Z,24.58
2023-04-19T16:41:41.734Z,24.52
2023-04-19T16:43:45.380Z,25.23
2023-04-19T16:45:49.026Z,25.20
2023-04-19T16:47:53.937Z,25.07
2023-04-19T16:49:57.651Z,25.31
2023-04-19T16:52:01.079Z,25.33
2023-04-19T16:54:04.530Z,25.26
2023-04-19T16:56:08.330Z,25.17
2023-04-19T16:58:13.120Z,25.44
2023-04-19T17:00:17.611Z,25.68
2023-04-19T17:02:21.145Z,25.79
2023-04-19T17:04:25.065Z,25.71
2023-04-19T17:06:28.911Z,25.74
2023-04-19T17:08:32.253Z,26.09
2023-04-19T17:10:35.695Z,26.14
2023-04-19T17:12:39.860Z,26.41
2023-04-19T17:14:44.675Z,26.49
2023-04-19T17:16:48.197Z,26.52
2023-04-19T17:18:51.622Z,26.69
2023-04-19T17:20:55.044Z,26.67
2023-04-19T17:22:58.721Z,26.70
2023-04-19T17:25:02.173Z,26.75
2023-04-19T17:27:06.177Z,26.90
2023-04-19T17:29:10.049Z,26.72
2023-04-19T17:31:15.105Z,27.05
2023-04-19T17:33:18.448Z,26.93
2023-04-19T17:35:22.037Z,27.24
2023-04-19T17:37:25.979Z,27.35
2023-04-19T17:39:29.370Z,27.42
2023-04-19T17:41:32.967Z,27.51
2023-04-19T17:43:36.560Z,27.45
2023-04-19T17:45:40.376Z,27.21
2023-04-19T17:47:45.203Z,27.35
2023-04-19T17:49:49.463Z,27.42
2023-04-19T17:51:53.238Z,27.90
2023-04-19T17:53:56.601Z,28.04
2023-04-19T17:55:59.868Z,28.17
2023-04-19T17:58:03.182Z,28.14
2023-04-19T18:00:10.677Z,28.58
2023-04-19T18:02:14.221Z,28.56
2023-04-19T18:04:23.087Z,29.08
2023-04-19T18:06:26.661Z,29.38
2023-04-19T18:08:30.050Z,29.67
2023-04-19T18:10:36.417Z,30.19
2023-04-19T18:12:39.916Z,30.54
2023-04-19T18:14:43.341Z,30.90
2023-04-19T18:16:46.824Z,31.38
2023-04-19T18:18:50.266Z,31.63
2023-04-19T18:20:55.198Z,31.93
2023-04-19T18:23:00.092Z,31.98
2023-04-19T18:25:03.498Z,32.34
2023-04-19T18:27:06.933Z,32.72
2023-04-19T18:29:12.483Z,33.05
2023-04-19T18:31:19.279Z,33.10
2023-04-19T18:33:22.754Z,33.49
2023-04-19T18:35:26.592Z,33.66
2023-04-19T18:37:31.632Z,33.76
2023-04-19T18:39:34.960Z,34.28
2023-04-19T18:41:39.054Z,34.56
2023-04-19T18:45:46.675Z,34.78
2023-04-19T18:47:50.139Z,35.29
2023-04-19T18:50:04.427Z,35.27
2023-04-19T18:52:09.407Z,35.73
2023-04-19T18:54:14.095Z,36.17
2023-04-19T18:56:18.587Z,36.16
2023-04-19T18:58:22.702Z,36.23
2023-04-19T19:00:26.034Z,36.56
2023-04-19T19:02:29.597Z,36.67
2023-04-19T19:04:51.057Z,36.84
2023-04-19T19:07:02.514Z,36.92
2023-04-19T19:09:13.061Z,37.28
2023-04-19T19:11:47.216Z,37.63
2023-04-19T19:13:40.631Z,37.61
2023-04-19T19:15:43.966Z,37.77
2023-04-19T19:17:49.724Z,37.61
2023-04-19T19:19:54.102Z,37.72
2023-04-19T19:21:57.723Z,37.87
2023-04-19T19:24:01.084Z,38.08
2023-04-19T19:26:06.276Z,38.32
2023-04-19T19:28:10.623Z,38.42
2023-04-19T19:30:15.229Z,38.99
2023-04-19T19:32:20.965Z,39.26
2023-04-19T19:34:29.181Z,38.98
2023-04-19T19:36:33.991Z,38.86
2023-04-19T19:38:37.802Z,39.13
2023-04-19T19:41:13.975Z,39.30
2023-04-19T19:43:08.629Z,39.49
2023-04-19T19:45:12.528Z,39.59
2023-04-19T19:47:17.196Z,39.70
2023-04-19T19:49:22.164Z,40.10
2023-04-19T19:53:32.653Z,40.22
2023-04-19T19:55:37.188Z,40.26
2023-04-19T19:59:56.360Z,40.35
2023-04-19T20:02:02.120Z,40.30
2023-04-19T20:04:07.155Z,40.49
2023-04-19T20:06:57.139Z,40.52
2023-04-19T20:08:37.462Z,40.33
2023-04-19T20:10:44.279Z,40.84
2023-04-19T20:12:48.613Z,40.87
2023-04-19T20:14:53.430Z,40.70
2023-04-19T20:16:57.661Z,41.05
2023-04-19T20:19:03.127Z,41.11
2023-04-19T20:21:06.552Z,41.05
2023-04-19T20:23:10.354Z,41.43
2023-04-19T20:25:18.967Z,41.55
2023-04-19T20:27:22.537Z,41.79
2023-04-19T20:29:25.900Z,42.11
2023-04-19T20:31:30.807Z,42.72
2023-04-19T20:33:34.406Z,43.10
2023-04-19T20:35:41.605Z,43.36
2023-04-19T20:37:45.547Z,43.65
2023-04-19T20:39:49.217Z,43.79
2023-04-19T20:41:53.920Z,44.06
2023-04-19T20:43:59.869Z,44.22
2023-04-19T20:46:03.581Z,44.58
2023-04-19T20:48:08.945Z,44.81
2023-04-19T20:50:12.562Z,45.03
2023-04-19T20:52:15.965Z,45.43
2023-04-19T20:54:19.396Z,45.51
2023-04-19T20:56:23.127Z,45.75
2023-04-19T20:58:26.677Z,46.09
2023-04-19T21:00:29.952Z,46.14
2023-04-19T21:02:33.377Z,46.47
2023-04-19T21:04:38.301Z,46.62
2023-04-19T21:06:41.774Z,46.82
2023-04-19T21:08:45.158Z,46.71
2023-04-19T21:10:48.496Z,46.81
2023-04-19T21:12:51.797Z,46.51
2023-04-19T21:14:55.095Z,46.13
2023-04-19T21:16:58.512Z,46.04
2023-04-19T21:19:01.850Z,45.88
2023-04-19T21:21:06.577Z,45.43
2023-04-19T21:23:10.057Z,45.32
2023-04-19T21:25:14.124Z,45.22
2023-04-19T21:27:17.419Z,45.31
2023-04-19T21:29:21.387Z,45.42
2023-04-19T21:31:24.791Z,44.84
2023-04-19T21:33:30.669Z,44.70
2023-04-19T21:35:36.744Z,44.62
2023-04-19T21:37:41.441Z,44.71
2023-04-19T21:39:44.868Z,44.62
2023-04-19T21:41:48.264Z,44.65
2023-04-19T21:43:51.753Z,44.12
2023-04-19T21:45:55.158Z,43.89
2023-04-19T21:47:58.648Z,43.35
2023-04-19T21:50:02.226Z,43.40
2023-04-19T21:52:05.890Z,43.51
2023-04-19T21:54:10.764Z,43.22
2023-04-19T21:56:16.252Z,43.06
2023-04-19T21:58:20.005Z,42.75
2023-04-19T22:00:24.368Z,42.49
2023-04-19T22:02:27.972Z,42.53
2023-04-19T22:04:31.850Z,41.73
2023-04-19T22:06:35.439Z,41.13
2023-04-19T22:08:38.827Z,40.85
2023-04-19T22:10:43.754Z,40.10
2023-04-19T22:12:57.873Z,39.90
2023-04-19T22:15:02.716Z,39.50
2023-04-19T22:17:06.467Z,39.31
2023-04-19T22:19:10.115Z,39.57
2023-04-19T22:21:13.556Z,39.15
2023-04-19T22:23:16.944Z,39.26
2023-04-19T22:25:20.633Z,38.69
2023-04-19T22:27:25.551Z,38.78
2023-04-19T22:29:29.090Z,39.19
2023-04-19T22:31:32.584Z,39.43
2023-04-19T22:33:35.974Z,39.56
2023-04-19T22:35:39.558Z,38.82
2023-04-19T22:37:43.025Z,38.76
2023-04-19T22:39:46.483Z,38.35
2023-04-19T22:41:50.030Z,38.04
2023-04-19T22:43:55.579Z,37.99
2023-04-19T22:45:58.920Z,37.56
2023-04-19T22:48:03.296Z,37.54
2023-04-19T22:50:07.804Z,37.62
2023-04-19T22:52:11.504Z,37.04
2023-04-19T22:54:14.853Z,37.18
2023-04-19T22:56:18.521Z,37.24
2023-04-19T22:58:21.968Z,36.99
2023-04-19T23:00:26.881Z,36.87
2023-04-19T23:02:30.403Z,36.49
2023-04-19T23:04:35.413Z,36.69
2023-04-19T23:06:39.635Z,36.42
2023-04-19T23:08:43.000Z,36.27
2023-04-19T23:10:46.360Z,36.49
2023-04-19T23:12:49.761Z,36.46
2023-04-19T23:14:53.244Z,36.69
2023-04-19T23:16:59.158Z,36.71
2023-04-19T23:19:02.573Z,37.03
2023-04-19T23:21:06.192Z,36.78
2023-04-19T23:23:09.561Z,37.07
2023-04-19T23:25:12.951Z,37.01
2023-04-19T23:27:16.497Z,36.85
2023-04-19T23:29:19.921Z,36.96
2023-04-19T23:31:23.459Z,37.26
2023-04-19T23:33:28.394Z,37.19
2023-04-19T23:35:31.785Z,37.33
2023-04-19T23:37:35.323Z,37.62
2023-04-19T23:39:38.835Z,37.96
2023-04-19T23:41:42.229Z,37.93
2023-04-19T23:43:46.947Z,38.16
2023-04-19T23:45:50.481Z,38.25
2023-04-19T23:47:53.976Z,38.32
2023-04-19T23:49:58.825Z,38.48
2023-04-19T23:52:02.631Z,38.25
2023-04-19T23:54:06.237Z,38.43
2023-04-19T23:56:09.908Z,38.69
2023-04-19T23:58:13.357Z,38.71
